sensor_id;sensor_type;location;lat;lon;timestamp;P1;durP1;ratioP1;P2;durP2;ratioP2
79677;SDS011;69145;45.544;10.214;2023-07-24T00:00:22;18.52;;;11.10;;
79677;SDS011;69145;45.544;10.214;2023-07-24T00:02:47;18.30;;;11.27;;
79677;SDS011;69145;45.544;10.214;2023-07-24T00:05:13;19.55;;;11.85;;
79677;SDS011;69145;45.544;10.214;2023-07-24T00:07:38;17.60;;;10.98;;
79677;SDS011;69145;45.544;10.214;2023-07-24T00:10:04;17.67;;;10.75;;
79677;SDS011;69145;45.544;10.214;2023-07-24T00:12:30;18.92;;;11.68;;
79677;SDS011;69145;45.544;10.214;2023-07-24T00:14:55;18.23;;;10.75;;
79677;SDS011;69145;45.544;10.214;2023-07-24T00:17:21;17.02;;;11.02;;
79677;SDS011;69145;45.544;10.214;2023-07-24T00:19:46;16.83;;;11.25;;
79677;SDS011;69145;45.544;10.214;2023-07-24T00:22:12;18.65;;;11.45;;
79677;SDS011;69145;45.544;10.214;2023-07-24T00:24:37;17.63;;;10.82;;
79677;SDS011;69145;45.544;10.214;2023-07-24T00:27:02;17.30;;;11.07;;
79677;SDS011;69145;45.544;10.214;2023-07-24T00:29:28;19.40;;;12.68;;
79677;SDS011;69145;45.544;10.214;2023-07-24T00:31:54;18.42;;;11.90;;
79677;SDS011;69145;45.544;10.214;2023-07-24T00:34:19;20.60;;;12.38;;
79677;SDS011;69145;45.544;10.214;2023-07-24T00:36:45;19.55;;;13.27;;
79677;SDS011;69145;45.544;10.214;2023-07-24T00:39:10;17.63;;;11.80;;
79677;SDS011;69145;45.544;10.214;2023-07-24T00:41:36;16.25;;;11.15;;
79677;SDS011;69145;45.544;10.214;2023-07-24T00:44:01;18.63;;;11.93;;
79677;SDS011;69145;45.544;10.214;2023-07-24T00:46:26;18.77;;;11.88;;
79677;SDS011;69145;45.544;10.214;2023-07-24T00:48:56;17.67;;;11.20;;
79677;SDS011;69145;45.544;10.214;2023-07-24T00:51:23;17.92;;;11.07;;
79677;SDS011;69145;45.544;10.214;2023-07-24T00:53:48;20.55;;;11.23;;
79677;SDS011;69145;45.544;10.214;2023-07-24T00:56:13;18.10;;;11.87;;
79677;SDS011;69145;45.544;10.214;2023-07-24T00:58:39;17.05;;;11.32;;
79677;SDS011;69145;45.544;10.214;2023-07-24T01:01:04;19.75;;;11.38;;
79677;SDS011;69145;45.544;10.214;2023-07-24T01:03:32;17.92;;;10.60;;
79677;SDS011;69145;45.544;10.214;2023-07-24T01:05:59;17.30;;;10.48;;
79677;SDS011;69145;45.544;10.214;2023-07-24T01:08:26;18.05;;;11.45;;
79677;SDS011;69145;45.544;10.214;2023-07-24T01:10:51;19.15;;;11.55;;
79677;SDS011;69145;45.544;10.214;2023-07-24T01:13:19;16.90;;;11.25;;
79677;SDS011;69145;45.544;10.214;2023-07-24T01:15:55;16.20;;;11.13;;
79677;SDS011;69145;45.544;10.214;2023-07-24T01:18:25;18.52;;;11.20;;
79677;SDS011;69145;45.544;10.214;2023-07-24T01:20:55;19.75;;;11.70;;
79677;SDS011;69145;45.544;10.214;2023-07-24T01:23:37;17.83;;;11.57;;
79677;SDS011;69145;45.544;10.214;2023-07-24T01:26:11;19.52;;;12.13;;
79677;SDS011;69145;45.544;10.214;2023-07-24T01:28:37;19.30;;;11.35;;
79677;SDS011;69145;45.544;10.214;2023-07-24T01:31:04;19.88;;;11.55;;
79677;SDS011;69145;45.544;10.214;2023-07-24T01:33:30;17.08;;;11.27;;
79677;SDS011;69145;45.544;10.214;2023-07-24T01:36:00;16.95;;;11.45;;
79677;SDS011;69145;45.544;10.214;2023-07-24T01:38:27;18.17;;;11.05;;
79677;SDS011;69145;45.544;10.214;2023-07-24T01:40:56;20.35;;;11.55;;
79677;SDS011;69145;45.544;10.214;2023-07-24T01:43:22;20.80;;;11.98;;
79677;SDS011;69145;45.544;10.214;2023-07-24T01:45:48;18.40;;;11.88;;
79677;SDS011;69145;45.544;10.214;2023-07-24T01:48:13;18.45;;;11.13;;
79677;SDS011;69145;45.544;10.214;2023-07-24T01:50:38;16.53;;;11.30;;
79677;SDS011;69145;45.544;10.214;2023-07-24T01:53:04;17.70;;;10.95;;
79677;SDS011;69145;45.544;10.214;2023-07-24T01:55:29;18.23;;;11.47;;
79677;SDS011;69145;45.544;10.214;2023-07-24T01:57:54;18.00;;;11.63;;
79677;SDS011;69145;45.544;10.214;2023-07-24T02:00:20;18.10;;;10.47;;
79677;SDS011;69145;45.544;10.214;2023-07-24T02:02:45;16.90;;;10.98;;
79677;SDS011;69145;45.544;10.214;2023-07-24T02:05:10;16.00;;;10.60;;
79677;SDS011;69145;45.544;10.214;2023-07-24T02:07:36;18.90;;;11.50;;
79677;SDS011;69145;45.544;10.214;2023-07-24T02:10:01;17.42;;;10.60;;
79677;SDS011;69145;45.544;10.214;2023-07-24T02:12:26;18.00;;;11.00;;
79677;SDS011;69145;45.544;10.214;2023-07-24T02:14:52;17.27;;;10.97;;
79677;SDS011;69145;45.544;10.214;2023-07-24T02:17:18;17.80;;;11.32;;
79677;SDS011;69145;45.544;10.214;2023-07-24T02:19:44;16.98;;;10.52;;
79677;SDS011;69145;45.544;10.214;2023-07-24T02:22:09;20.50;;;11.60;;
79677;SDS011;69145;45.544;10.214;2023-07-24T02:24:38;16.88;;;11.10;;
79677;SDS011;69145;45.544;10.214;2023-07-24T02:27:04;16.65;;;11.20;;
79677;SDS011;69145;45.544;10.214;2023-07-24T02:29:30;17.35;;;11.30;;
79677;SDS011;69145;45.544;10.214;2023-07-24T02:31:56;17.48;;;10.95;;
79677;SDS011;69145;45.544;10.214;2023-07-24T02:34:22;20.02;;;10.98;;
79677;SDS011;69145;45.544;10.214;2023-07-24T02:36:51;18.65;;;11.73;;
79677;SDS011;69145;45.544;10.214;2023-07-24T02:39:18;19.08;;;11.38;;
79677;SDS011;69145;45.544;10.214;2023-07-24T02:41:43;19.10;;;11.85;;
79677;SDS011;69145;45.544;10.214;2023-07-24T02:44:09;16.70;;;10.95;;
79677;SDS011;69145;45.544;10.214;2023-07-24T02:46:34;17.23;;;10.82;;
79677;SDS011;69145;45.544;10.214;2023-07-24T02:49:03;17.83;;;11.33;;
79677;SDS011;69145;45.544;10.214;2023-07-24T02:51:31;20.13;;;11.57;;
79677;SDS011;69145;45.544;10.214;2023-07-24T02:53:57;17.80;;;10.80;;
79677;SDS011;69145;45.544;10.214;2023-07-24T02:56:22;17.40;;;11.00;;
79677;SDS011;69145;45.544;10.214;2023-07-24T02:58:50;17.17;;;11.20;;
79677;SDS011;69145;45.544;10.214;2023-07-24T03:01:16;18.85;;;10.77;;
79677;SDS011;69145;45.544;10.214;2023-07-24T03:03:41;18.50;;;11.35;;
79677;SDS011;69145;45.544;10.214;2023-07-24T03:06:09;16.88;;;11.05;;
79677;SDS011;69145;45.544;10.214;2023-07-24T03:08:35;16.85;;;11.30;;
79677;SDS011;69145;45.544;10.214;2023-07-24T03:11:00;19.13;;;11.45;;
79677;SDS011;69145;45.544;10.214;2023-07-24T03:13:27;18.10;;;11.10;;
79677;SDS011;69145;45.544;10.214;2023-07-24T03:15:56;16.52;;;10.52;;
79677;SDS011;69145;45.544;10.214;2023-07-24T03:20:47;17.45;;;11.10;;
79677;SDS011;69145;45.544;10.214;2023-07-24T03:23:13;18.08;;;10.75;;
79677;SDS011;69145;45.544;10.214;2023-07-24T03:25:39;16.95;;;11.18;;
79677;SDS011;69145;45.544;10.214;2023-07-24T03:28:04;18.45;;;11.63;;
79677;SDS011;69145;45.544;10.214;2023-07-24T03:30:32;18.60;;;12.02;;
79677;SDS011;69145;45.544;10.214;2023-07-24T03:32:58;19.45;;;12.05;;
79677;SDS011;69145;45.544;10.214;2023-07-24T03:35:23;19.60;;;12.13;;
79677;SDS011;69145;45.544;10.214;2023-07-24T03:37:49;18.92;;;12.48;;
79677;SDS011;69145;45.544;10.214;2023-07-24T03:40:14;18.97;;;11.97;;
79677;SDS011;69145;45.544;10.214;2023-07-24T03:42:41;19.45;;;11.98;;
79677;SDS011;69145;45.544;10.214;2023-07-24T03:45:07;18.58;;;12.88;;
79677;SDS011;69145;45.544;10.214;2023-07-24T03:47:33;18.45;;;11.57;;
79677;SDS011;69145;45.544;10.214;2023-07-24T03:49:58;18.63;;;12.02;;
79677;SDS011;69145;45.544;10.214;2023-07-24T03:52:23;17.83;;;12.03;;
79677;SDS011;69145;45.544;10.214;2023-07-24T03:54:49;18.33;;;11.38;;
79677;SDS011;69145;45.544;10.214;2023-07-24T03:57:15;16.02;;;10.68;;
79677;SDS011;69145;45.544;10.214;2023-07-24T03:59:41;16.48;;;10.95;;
79677;SDS011;69145;45.544;10.214;2023-07-24T04:02:06;17.70;;;11.20;;
79677;SDS011;69145;45.544;10.214;2023-07-24T04:04:32;16.70;;;10.27;;
79677;SDS011;69145;45.544;10.214;2023-07-24T04:06:58;17.77;;;11.57;;
79677;SDS011;69145;45.544;10.214;2023-07-24T04:09:23;18.90;;;11.00;;
79677;SDS011;69145;45.544;10.214;2023-07-24T04:11:48;15.73;;;10.68;;
79677;SDS011;69145;45.544;10.214;2023-07-24T04:14:14;17.43;;;10.33;;
79677;SDS011;69145;45.544;10.214;2023-07-24T04:16:39;18.30;;;11.20;;
79677;SDS011;69145;45.544;10.214;2023-07-24T04:19:04;16.43;;;10.57;;
79677;SDS011;69145;45.544;10.214;2023-07-24T04:21:30;17.83;;;10.48;;
79677;SDS011;69145;45.544;10.214;2023-07-24T04:23:55;17.48;;;10.70;;
79677;SDS011;69145;45.544;10.214;2023-07-24T04:26:21;18.03;;;10.40;;
79677;SDS011;69145;45.544;10.214;2023-07-24T04:28:46;15.43;;;10.18;;
79677;SDS011;69145;45.544;10.214;2023-07-24T04:31:11;17.67;;;11.50;;
79677;SDS011;69145;45.544;10.214;2023-07-24T04:33:37;15.18;;;10.35;;
79677;SDS011;69145;45.544;10.214;2023-07-24T04:36:03;17.73;;;11.00;;
79677;SDS011;69145;45.544;10.214;2023-07-24T04:38:29;21.20;;;11.43;;
79677;SDS011;69145;45.544;10.214;2023-07-24T04:40:54;20.60;;;10.57;;
79677;SDS011;69145;45.544;10.214;2023-07-24T04:43:19;17.73;;;11.40;;
79677;SDS011;69145;45.544;10.214;2023-07-24T04:45:45;18.10;;;11.50;;
79677;SDS011;69145;45.544;10.214;2023-07-24T04:48:10;17.98;;;11.20;;
79677;SDS011;69145;45.544;10.214;2023-07-24T04:50:35;16.08;;;10.63;;
79677;SDS011;69145;45.544;10.214;2023-07-24T04:53:01;15.30;;;11.07;;
79677;SDS011;69145;45.544;10.214;2023-07-24T04:55:26;17.10;;;11.10;;
79677;SDS011;69145;45.544;10.214;2023-07-24T04:57:52;16.83;;;10.68;;
79677;SDS011;69145;45.544;10.214;2023-07-24T05:00:17;17.60;;;11.17;;
79677;SDS011;69145;45.544;10.214;2023-07-24T05:02:42;17.83;;;10.68;;
79677;SDS011;69145;45.544;10.214;2023-07-24T05:05:08;15.48;;;10.30;;
79677;SDS011;69145;45.544;10.214;2023-07-24T05:07:34;19.33;;;11.13;;
79677;SDS011;69145;45.544;10.214;2023-07-24T05:09:59;20.15;;;11.00;;
79677;SDS011;69145;45.544;10.214;2023-07-24T05:12:24;19.00;;;11.63;;
79677;SDS011;69145;45.544;10.214;2023-07-24T05:14:50;16.92;;;10.93;;
79677;SDS011;69145;45.544;10.214;2023-07-24T05:17:15;17.42;;;10.88;;
79677;SDS011;69145;45.544;10.214;2023-07-24T05:19:41;17.52;;;12.07;;
79677;SDS011;69145;45.544;10.214;2023-07-24T05:22:06;18.13;;;10.82;;
79677;SDS011;69145;45.544;10.214;2023-07-24T05:24:32;18.00;;;10.90;;
79677;SDS011;69145;45.544;10.214;2023-07-24T05:26:58;17.95;;;10.75;;
79677;SDS011;69145;45.544;10.214;2023-07-24T05:29:24;17.10;;;11.00;;
79677;SDS011;69145;45.544;10.214;2023-07-24T05:31:49;19.73;;;11.35;;
79677;SDS011;69145;45.544;10.214;2023-07-24T05:34:14;19.27;;;10.73;;
79677;SDS011;69145;45.544;10.214;2023-07-24T05:36:40;16.77;;;10.23;;
79677;SDS011;69145;45.544;10.214;2023-07-24T05:39:06;16.85;;;10.50;;
79677;SDS011;69145;45.544;10.214;2023-07-24T05:41:31;17.63;;;10.68;;
79677;SDS011;69145;45.544;10.214;2023-07-24T05:43:57;15.60;;;10.17;;
79677;SDS011;69145;45.544;10.214;2023-07-24T05:46:22;18.83;;;10.90;;
79677;SDS011;69145;45.544;10.214;2023-07-24T05:48:47;16.85;;;10.68;;
79677;SDS011;69145;45.544;10.214;2023-07-24T05:51:13;15.80;;;10.18;;
79677;SDS011;69145;45.544;10.214;2023-07-24T05:53:38;19.37;;;10.73;;
79677;SDS011;69145;45.544;10.214;2023-07-24T05:56:03;15.93;;;9.93;;
79677;SDS011;69145;45.544;10.214;2023-07-24T05:58:29;15.90;;;10.70;;
79677;SDS011;69145;45.544;10.214;2023-07-24T06:00:54;16.90;;;10.63;;
79677;SDS011;69145;45.544;10.214;2023-07-24T06:03:23;19.23;;;11.07;;
79677;SDS011;69145;45.544;10.214;2023-07-24T06:05:52;16.92;;;10.43;;
79677;SDS011;69145;45.544;10.214;2023-07-24T06:08:21;18.17;;;10.88;;
79677;SDS011;69145;45.544;10.214;2023-07-24T06:10:48;17.48;;;10.98;;
79677;SDS011;69145;45.544;10.214;2023-07-24T06:13:15;19.33;;;10.80;;
79677;SDS011;69145;45.544;10.214;2023-07-24T06:15:41;17.23;;;10.57;;
79677;SDS011;69145;45.544;10.214;2023-07-24T06:18:06;14.93;;;10.25;;
79677;SDS011;69145;45.544;10.214;2023-07-24T06:20:32;17.02;;;10.45;;
79677;SDS011;69145;45.544;10.214;2023-07-24T06:22:57;19.05;;;10.85;;
79677;SDS011;69145;45.544;10.214;2023-07-24T06:25:22;16.23;;;10.80;;
79677;SDS011;69145;45.544;10.214;2023-07-24T06:27:48;20.02;;;10.95;;
79677;SDS011;69145;45.544;10.214;2023-07-24T06:30:13;15.47;;;10.73;;
79677;SDS011;69145;45.544;10.214;2023-07-24T06:32:38;16.70;;;11.05;;
79677;SDS011;69145;45.544;10.214;2023-07-24T06:35:04;18.38;;;10.25;;
79677;SDS011;69145;45.544;10.214;2023-07-24T06:37:30;15.25;;;10.35;;
79677;SDS011;69145;45.544;10.214;2023-07-24T06:39:55;16.58;;;8.88;;
79677;SDS011;69145;45.544;10.214;2023-07-24T06:42:21;17.23;;;9.68;;
79677;SDS011;69145;45.544;10.214;2023-07-24T06:44:46;17.43;;;10.50;;
79677;SDS011;69145;45.544;10.214;2023-07-24T06:47:14;15.63;;;9.57;;
79677;SDS011;69145;45.544;10.214;2023-07-24T06:49:40;16.95;;;10.05;;
79677;SDS011;69145;45.544;10.214;2023-07-24T06:52:05;20.97;;;9.97;;
79677;SDS011;69145;45.544;10.214;2023-07-24T06:54:31;15.73;;;10.05;;
79677;SDS011;69145;45.544;10.214;2023-07-24T06:56:56;16.92;;;10.25;;
79677;SDS011;69145;45.544;10.214;2023-07-24T06:59:22;16.37;;;9.87;;
79677;SDS011;69145;45.544;10.214;2023-07-24T07:01:48;16.70;;;9.32;;
79677;SDS011;69145;45.544;10.214;2023-07-24T07:04:13;18.83;;;10.67;;
79677;SDS011;69145;45.544;10.214;2023-07-24T07:06:38;19.33;;;10.83;;
79677;SDS011;69145;45.544;10.214;2023-07-24T07:09:04;15.37;;;9.83;;
79677;SDS011;69145;45.544;10.214;2023-07-24T07:11:30;16.27;;;9.77;;
79677;SDS011;69145;45.544;10.214;2023-07-24T07:13:55;16.00;;;10.37;;
79677;SDS011;69145;45.544;10.214;2023-07-24T07:16:21;18.00;;;11.60;;
79677;SDS011;69145;45.544;10.214;2023-07-24T07:18:46;16.42;;;9.98;;
79677;SDS011;69145;45.544;10.214;2023-07-24T07:21:11;19.20;;;11.05;;
79677;SDS011;69145;45.544;10.214;2023-07-24T07:23:37;20.42;;;10.60;;
79677;SDS011;69145;45.544;10.214;2023-07-24T07:26:02;15.70;;;10.45;;
79677;SDS011;69145;45.544;10.214;2023-07-24T07:28:27;17.08;;;10.88;;
79677;SDS011;69145;45.544;10.214;2023-07-24T07:30:53;19.37;;;10.83;;
79677;SDS011;69145;45.544;10.214;2023-07-24T07:33:19;19.52;;;11.57;;
79677;SDS011;69145;45.544;10.214;2023-07-24T07:35:47;16.38;;;9.43;;
79677;SDS011;69145;45.544;10.214;2023-07-24T07:38:12;15.95;;;10.40;;
79677;SDS011;69145;45.544;10.214;2023-07-24T07:40:38;17.35;;;11.77;;
79677;SDS011;69145;45.544;10.214;2023-07-24T07:43:04;17.88;;;10.77;;
79677;SDS011;69145;45.544;10.214;2023-07-24T07:45:30;17.67;;;10.48;;
79677;SDS011;69145;45.544;10.214;2023-07-24T07:47:55;16.38;;;10.75;;
79677;SDS011;69145;45.544;10.214;2023-07-24T07:50:20;17.03;;;10.57;;
79677;SDS011;69145;45.544;10.214;2023-07-24T07:52:48;17.15;;;10.52;;
79677;SDS011;69145;45.544;10.214;2023-07-24T07:55:15;15.32;;;9.32;;
79677;SDS011;69145;45.544;10.214;2023-07-24T07:57:40;14.88;;;9.48;;
79677;SDS011;69145;45.544;10.214;2023-07-24T08:00:06;16.20;;;9.73;;
79677;SDS011;69145;45.544;10.214;2023-07-24T08:02:32;14.75;;;9.25;;
79677;SDS011;69145;45.544;10.214;2023-07-24T08:04:58;16.33;;;9.90;;
79677;SDS011;69145;45.544;10.214;2023-07-24T08:07:24;16.55;;;10.00;;
79677;SDS011;69145;45.544;10.214;2023-07-24T08:09:49;15.13;;;9.40;;
79677;SDS011;69145;45.544;10.214;2023-07-24T08:12:14;17.85;;;9.63;;
79677;SDS011;69145;45.544;10.214;2023-07-24T08:14:40;14.50;;;9.57;;
79677;SDS011;69145;45.544;10.214;2023-07-24T08:17:05;19.20;;;10.80;;
79677;SDS011;69145;45.544;10.214;2023-07-24T08:19:30;16.10;;;9.52;;
79677;SDS011;69145;45.544;10.214;2023-07-24T08:21:56;20.95;;;9.93;;
79677;SDS011;69145;45.544;10.214;2023-07-24T08:24:21;15.50;;;9.93;;
79677;SDS011;69145;45.544;10.214;2023-07-24T08:26:46;17.40;;;9.80;;
79677;SDS011;69145;45.544;10.214;2023-07-24T08:29:12;15.10;;;9.30;;
79677;SDS011;69145;45.544;10.214;2023-07-24T08:31:37;16.27;;;9.50;;
79677;SDS011;69145;45.544;10.214;2023-07-24T08:34:12;15.67;;;9.70;;
79677;SDS011;69145;45.544;10.214;2023-07-24T08:36:37;16.52;;;9.70;;
79677;SDS011;69145;45.544;10.214;2023-07-24T08:39:02;17.47;;;9.83;;
79677;SDS011;69145;45.544;10.214;2023-07-24T08:41:28;15.15;;;9.50;;
79677;SDS011;69145;45.544;10.214;2023-07-24T08:43:54;15.82;;;9.63;;
79677;SDS011;69145;45.544;10.214;2023-07-24T08:46:20;17.65;;;9.98;;
79677;SDS011;69145;45.544;10.214;2023-07-24T08:48:46;16.77;;;9.40;;
79677;SDS011;69145;45.544;10.214;2023-07-24T08:51:12;16.17;;;10.00;;
79677;SDS011;69145;45.544;10.214;2023-07-24T08:53:39;20.15;;;10.20;;
79677;SDS011;69145;45.544;10.214;2023-07-24T08:56:06;20.13;;;10.88;;
79677;SDS011;69145;45.544;10.214;2023-07-24T08:58:33;19.15;;;10.82;;
79677;SDS011;69145;45.544;10.214;2023-07-24T09:00:59;18.40;;;10.63;;
79677;SDS011;69145;45.544;10.214;2023-07-24T09:03:25;20.95;;;11.90;;
79677;SDS011;69145;45.544;10.214;2023-07-24T09:05:51;20.25;;;11.82;;
79677;SDS011;69145;45.544;10.214;2023-07-24T09:08:27;19.95;;;12.20;;
79677;SDS011;69145;45.544;10.214;2023-07-24T09:10:57;21.63;;;11.27;;
79677;SDS011;69145;45.544;10.214;2023-07-24T09:13:23;21.40;;;11.93;;
79677;SDS011;69145;45.544;10.214;2023-07-24T09:15:49;20.25;;;12.35;;
79677;SDS011;69145;45.544;10.214;2023-07-24T09:18:14;20.27;;;12.05;;
79677;SDS011;69145;45.544;10.214;2023-07-24T09:20:41;20.35;;;11.75;;
79677;SDS011;69145;45.544;10.214;2023-07-24T09:23:09;17.48;;;11.02;;
79677;SDS011;69145;45.544;10.214;2023-07-24T09:25:36;19.60;;;11.77;;
79677;SDS011;69145;45.544;10.214;2023-07-24T09:28:09;22.42;;;11.60;;
79677;SDS011;69145;45.544;10.214;2023-07-24T09:30:38;22.98;;;12.40;;
79677;SDS011;69145;45.544;10.214;2023-07-24T09:33:04;19.75;;;11.43;;
79677;SDS011;69145;45.544;10.214;2023-07-24T09:35:30;18.85;;;11.60;;
79677;SDS011;69145;45.544;10.214;2023-07-24T09:38:03;17.20;;;11.18;;
79677;SDS011;69145;45.544;10.214;2023-07-24T09:43:16;20.90;;;11.15;;
79677;SDS011;69145;45.544;10.214;2023-07-24T09:45:45;19.38;;;11.68;;
79677;SDS011;69145;45.544;10.214;2023-07-24T09:48:11;20.35;;;12.60;;
79677;SDS011;69145;45.544;10.214;2023-07-24T09:50:39;22.45;;;12.13;;
79677;SDS011;69145;45.544;10.214;2023-07-24T09:53:06;21.75;;;13.40;;
79677;SDS011;69145;45.544;10.214;2023-07-24T09:56:03;21.63;;;11.93;;
79677;SDS011;69145;45.544;10.214;2023-07-24T09:58:28;20.08;;;11.95;;
79677;SDS011;69145;45.544;10.214;2023-07-24T10:00:54;20.52;;;12.15;;
79677;SDS011;69145;45.544;10.214;2023-07-24T10:03:21;21.38;;;12.05;;
79677;SDS011;69145;45.544;10.214;2023-07-24T10:05:47;17.33;;;11.13;;
79677;SDS011;69145;45.544;10.214;2023-07-24T10:08:17;19.90;;;11.65;;
79677;SDS011;69145;45.544;10.214;2023-07-24T10:10:43;20.23;;;13.00;;
79677;SDS011;69145;45.544;10.214;2023-07-24T10:13:09;19.83;;;11.45;;
79677;SDS011;69145;45.544;10.214;2023-07-24T10:15:36;21.55;;;12.15;;
79677;SDS011;69145;45.544;10.214;2023-07-24T10:18:04;17.77;;;12.00;;
79677;SDS011;69145;45.544;10.214;2023-07-24T10:20:40;19.23;;;11.68;;
79677;SDS011;69145;45.544;10.214;2023-07-24T10:23:07;19.88;;;11.60;;
79677;SDS011;69145;45.544;10.214;2023-07-24T10:25:35;17.35;;;10.45;;
79677;SDS011;69145;45.544;10.214;2023-07-24T10:28:05;18.77;;;11.57;;
79677;SDS011;69145;45.544;10.214;2023-07-24T10:30:39;19.85;;;11.80;;
79677;SDS011;69145;45.544;10.214;2023-07-24T10:33:07;18.00;;;11.10;;
79677;SDS011;69145;45.544;10.214;2023-07-24T10:35:43;16.70;;;10.65;;
79677;SDS011;69145;45.544;10.214;2023-07-24T10:38:11;19.02;;;10.90;;
79677;SDS011;69145;45.544;10.214;2023-07-24T10:40:39;17.30;;;10.50;;
79677;SDS011;69145;45.544;10.214;2023-07-24T10:43:05;16.02;;;10.30;;
79677;SDS011;69145;45.544;10.214;2023-07-24T10:45:51;20.10;;;10.15;;
79677;SDS011;69145;45.544;10.214;2023-07-24T10:48:18;15.82;;;9.80;;
79677;SDS011;69145;45.544;10.214;2023-07-24T10:50:48;15.60;;;10.38;;
79677;SDS011;69145;45.544;10.214;2023-07-24T10:53:16;16.92;;;10.15;;
79677;SDS011;69145;45.544;10.214;2023-07-24T10:55:42;16.48;;;10.55;;
79677;SDS011;69145;45.544;10.214;2023-07-24T10:58:09;16.67;;;9.98;;
79677;SDS011;69145;45.544;10.214;2023-07-24T11:00:35;15.25;;;10.38;;
79677;SDS011;69145;45.544;10.214;2023-07-24T11:03:00;17.80;;;10.20;;
79677;SDS011;69145;45.544;10.214;2023-07-24T11:05:26;15.43;;;11.00;;
79677;SDS011;69145;45.544;10.214;2023-07-24T11:07:51;16.80;;;10.18;;
79677;SDS011;69145;45.544;10.214;2023-07-24T11:10:21;16.63;;;10.32;;
79677;SDS011;69145;45.544;10.214;2023-07-24T11:12:48;17.95;;;10.98;;
79677;SDS011;69145;45.544;10.214;2023-07-24T11:15:22;17.42;;;10.80;;
79677;SDS011;69145;45.544;10.214;2023-07-24T11:17:49;16.27;;;10.48;;
79677;SDS011;69145;45.544;10.214;2023-07-24T11:20:15;17.27;;;10.40;;
79677;SDS011;69145;45.544;10.214;2023-07-24T11:22:42;19.95;;;10.85;;
79677;SDS011;69145;45.544;10.214;2023-07-24T11:25:09;17.80;;;10.60;;
79677;SDS011;69145;45.544;10.214;2023-07-24T11:27:38;15.50;;;9.90;;
79677;SDS011;69145;45.544;10.214;2023-07-24T11:30:06;17.23;;;10.02;;
79677;SDS011;69145;45.544;10.214;2023-07-24T11:32:32;15.55;;;10.40;;
79677;SDS011;69145;45.544;10.214;2023-07-24T11:34:57;15.83;;;10.20;;
79677;SDS011;69145;45.544;10.214;2023-07-24T11:37:27;15.93;;;10.25;;
79677;SDS011;69145;45.544;10.214;2023-07-24T11:39:59;20.23;;;10.90;;
79677;SDS011;69145;45.544;10.214;2023-07-24T11:45:05;17.92;;;10.77;;
79677;SDS011;69145;45.544;10.214;2023-07-24T11:47:40;20.20;;;11.07;;
79677;SDS011;69145;45.544;10.214;2023-07-24T11:50:19;18.20;;;11.07;;
79677;SDS011;69145;45.544;10.214;2023-07-24T11:52:45;20.50;;;10.55;;
79677;SDS011;69145;45.544;10.214;2023-07-24T11:55:13;20.15;;;10.52;;
79677;SDS011;69145;45.544;10.214;2023-07-24T11:57:39;19.45;;;11.07;;
79677;SDS011;69145;45.544;10.214;2023-07-24T12:00:21;16.58;;;10.43;;
79677;SDS011;69145;45.544;10.214;2023-07-24T12:02:55;19.17;;;12.50;;
79677;SDS011;69145;45.544;10.214;2023-07-24T12:05:25;20.23;;;10.63;;
79677;SDS011;69145;45.544;10.214;2023-07-24T12:07:54;20.02;;;9.98;;
79677;SDS011;69145;45.544;10.214;2023-07-24T12:10:26;15.77;;;9.93;;
79677;SDS011;69145;45.544;10.214;2023-07-24T12:12:53;16.70;;;9.43;;
79677;SDS011;69145;45.544;10.214;2023-07-24T12:15:22;18.25;;;9.82;;
79677;SDS011;69145;45.544;10.214;2023-07-24T12:17:48;17.70;;;10.50;;
79677;SDS011;69145;45.544;10.214;2023-07-24T12:20:13;16.02;;;10.35;;
79677;SDS011;69145;45.544;10.214;2023-07-24T12:22:38;17.75;;;10.60;;
79677;SDS011;69145;45.544;10.214;2023-07-24T12:25:04;17.97;;;10.17;;
79677;SDS011;69145;45.544;10.214;2023-07-24T12:27:31;17.50;;;10.30;;
79677;SDS011;69145;45.544;10.214;2023-07-24T12:30:07;16.77;;;9.77;;
79677;SDS011;69145;45.544;10.214;2023-07-24T12:32:32;18.98;;;10.27;;
79677;SDS011;69145;45.544;10.214;2023-07-24T12:34:58;16.13;;;10.18;;
79677;SDS011;69145;45.544;10.214;2023-07-24T12:37:26;17.17;;;9.93;;
79677;SDS011;69145;45.544;10.214;2023-07-24T12:42:18;15.73;;;9.47;;
79677;SDS011;69145;45.544;10.214;2023-07-24T12:44:44;16.57;;;9.83;;
79677;SDS011;69145;45.544;10.214;2023-07-24T12:47:09;20.08;;;10.63;;
79677;SDS011;69145;45.544;10.214;2023-07-24T12:49:35;25.38;;;9.70;;
79677;SDS011;69145;45.544;10.214;2023-07-24T12:52:01;22.65;;;9.38;;
79677;SDS011;69145;45.544;10.214;2023-07-24T12:54:35;18.30;;;7.88;;
79677;SDS011;69145;45.544;10.214;2023-07-24T12:57:01;15.20;;;7.75;;
79677;SDS011;69145;45.544;10.214;2023-07-24T12:59:27;15.57;;;7.75;;
79677;SDS011;69145;45.544;10.214;2023-07-24T13:01:53;18.25;;;8.40;;
79677;SDS011;69145;45.544;10.214;2023-07-24T13:04:19;16.27;;;8.38;;
79677;SDS011;69145;45.544;10.214;2023-07-24T13:06:45;15.13;;;7.85;;
79677;SDS011;69145;45.544;10.214;2023-07-24T13:09:10;12.90;;;7.35;;
79677;SDS011;69145;45.544;10.214;2023-07-24T13:11:36;14.48;;;7.47;;
79677;SDS011;69145;45.544;10.214;2023-07-24T13:14:01;15.57;;;8.70;;
79677;SDS011;69145;45.544;10.214;2023-07-24T13:16:33;14.13;;;8.02;;
79677;SDS011;69145;45.544;10.214;2023-07-24T13:18:58;12.57;;;7.45;;
79677;SDS011;69145;45.544;10.214;2023-07-24T13:21:24;14.95;;;7.28;;
79677;SDS011;69145;45.544;10.214;2023-07-24T13:23:49;16.38;;;7.28;;
79677;SDS011;69145;45.544;10.214;2023-07-24T13:26:15;13.85;;;7.10;;
79677;SDS011;69145;45.544;10.214;2023-07-24T13:28:40;13.27;;;7.20;;
79677;SDS011;69145;45.544;10.214;2023-07-24T13:31:15;12.02;;;6.70;;
79677;SDS011;69145;45.544;10.214;2023-07-24T13:33:44;13.35;;;7.13;;
79677;SDS011;69145;45.544;10.214;2023-07-24T13:36:10;14.35;;;6.70;;
79677;SDS011;69145;45.544;10.214;2023-07-24T13:38:36;12.35;;;6.70;;
79677;SDS011;69145;45.544;10.214;2023-07-24T13:41:04;11.32;;;6.35;;
79677;SDS011;69145;45.544;10.214;2023-07-24T13:43:30;11.43;;;5.93;;
79677;SDS011;69145;45.544;10.214;2023-07-24T13:45:56;12.90;;;6.80;;
79677;SDS011;69145;45.544;10.214;2023-07-24T13:48:22;11.38;;;6.13;;
79677;SDS011;69145;45.544;10.214;2023-07-24T13:50:48;14.63;;;6.65;;
79677;SDS011;69145;45.544;10.214;2023-07-24T13:53:14;12.43;;;7.05;;
79677;SDS011;69145;45.544;10.214;2023-07-24T13:55:40;12.68;;;6.43;;
79677;SDS011;69145;45.544;10.214;2023-07-24T13:58:05;11.85;;;6.78;;
79677;SDS011;69145;45.544;10.214;2023-07-24T14:00:30;10.47;;;6.50;;
79677;SDS011;69145;45.544;10.214;2023-07-24T14:02:56;10.70;;;6.17;;
79677;SDS011;69145;45.544;10.214;2023-07-24T14:05:21;13.60;;;6.47;;
79677;SDS011;69145;45.544;10.214;2023-07-24T14:07:46;18.02;;;7.03;;
79677;SDS011;69145;45.544;10.214;2023-07-24T14:10:12;18.30;;;7.50;;
79677;SDS011;69145;45.544;10.214;2023-07-24T14:12:37;18.55;;;6.68;;
79677;SDS011;69145;45.544;10.214;2023-07-24T14:15:03;18.15;;;7.32;;
79677;SDS011;69145;45.544;10.214;2023-07-24T14:17:29;9.88;;;6.15;;